DLH1RE EKCH-EDDM
Flight info
| Callsign | DLH1RE |
|---|---|
| Flight time | 1h 15m |
| Altitude | 37000 |
| Route | SALLO M44 KOGIM DCT MAREM/N0440F340 DCT VESUB T106 TUSTO T108 LANDU LANDU2A |
| Aircraft | A320/M-SDE3FGHIRWY/LB1 |
Departure
| Time | 2026-05-04 18:22 |
|---|---|
| Airport | Copenhagen Kastrup Airport (EKCH) |
Arrival
| Time | 2026-05-04 19:37 |
|---|---|
| Airport | Munich Airport (EDDM) |
| Time | Latitude | Longitude | Altitude | Speed | Heading |
|---|---|---|---|---|---|
| 2026-05-04 17:35 | 55.62673 | 12.64237 | 23 ft | 0 kts | 34° |
| 2026-05-04 18:07 | 55.62656 | 12.64216 | 25 ft | 4 kts | 34° |
| 2026-05-04 18:08 | 55.62638 | 12.64193 | 27 ft | 4 kts | 40° |
| 2026-05-04 18:08 | 55.62624 | 12.64158 | 22 ft | 4 kts | 89° |
| 2026-05-04 18:08 | 55.62630 | 12.64114 | 25 ft | 4 kts | 123° |
| 2026-05-04 18:08 | 55.62633 | 12.64106 | 25 ft | 0 kts | 124° |
| 2026-05-04 18:12 | 55.62633 | 12.64107 | 26 ft | 0 kts | 124° |
| 2026-05-04 18:12 | 55.62623 | 12.64133 | 25 ft | 8 kts | 123° |
| 2026-05-04 18:12 | 55.62591 | 12.64203 | 22 ft | 5 kts | 148° |
| 2026-05-04 18:12 | 55.62586 | 12.64206 | 22 ft | 0 kts | 157° |
| 2026-05-04 18:13 | 55.62551 | 12.64199 | 21 ft | 9 kts | 185° |
| 2026-05-04 18:13 | 55.62434 | 12.64417 | 18 ft | 8 kts | 128° |
| 2026-05-04 18:14 | 55.62402 | 12.64450 | 19 ft | 0 kts | 175° |
| 2026-05-04 18:15 | 55.62367 | 12.64439 | 19 ft | 5 kts | 195° |
| 2026-05-04 18:15 | 55.62357 | 12.64434 | 19 ft | 0 kts | 195° |
| 2026-05-04 18:17 | 55.62274 | 12.64395 | 18 ft | 16 kts | 195° |
| 2026-05-04 18:17 | 55.62160 | 12.64312 | 17 ft | 19 kts | 206° |
| 2026-05-04 18:17 | 55.61933 | 12.64125 | 24 ft | 14 kts | 204° |
| 2026-05-04 18:18 | 55.61848 | 12.64072 | 27 ft | 12 kts | 182° |
| 2026-05-04 18:18 | 55.61774 | 12.64078 | 26 ft | 9 kts | 176° |
| 2026-05-04 18:18 | 55.61759 | 12.64079 | 26 ft | 0 kts | 177° |
| 2026-05-04 18:19 | 55.61717 | 12.64083 | 27 ft | 13 kts | 177° |
| 2026-05-04 18:20 | 55.61639 | 12.64078 | 28 ft | 8 kts | 200° |
| 2026-05-04 18:20 | 55.61621 | 12.64056 | 28 ft | 0 kts | 218° |
| 2026-05-04 18:21 | 55.61568 | 12.63980 | 28 ft | 41 kts | 219° |
| 2026-05-04 18:21 | 55.61171 | 12.63365 | 29 ft | 107 kts | 220° |
| 2026-05-04 18:21 | 55.60474 | 12.62277 | 23 ft | 157 kts | 222° |
| 2026-05-04 18:21 | 55.59592 | 12.60934 | 448 ft | 167 kts | 224° |
| 2026-05-04 18:22 | 55.58716 | 12.59604 | 1204 ft | 165 kts | 224° |
| 2026-05-04 18:22 | 55.57810 | 12.58221 | 1662 ft | 182 kts | 224° |
| 2026-05-04 18:22 | 55.56795 | 12.56644 | 1976 ft | 207 kts | 223° |
| 2026-05-04 18:22 | 55.55484 | 12.55237 | 2385 ft | 234 kts | 206° |
| 2026-05-04 18:23 | 55.53889 | 12.54152 | 2894 ft | 255 kts | 201° |
| 2026-05-04 18:23 | 55.52174 | 12.53173 | 3721 ft | 261 kts | 200° |
| 2026-05-04 18:23 | 55.50432 | 12.52226 | 4685 ft | 263 kts | 200° |
| 2026-05-04 18:23 | 55.48677 | 12.51276 | 5583 ft | 266 kts | 201° |
| 2026-05-04 18:24 | 55.47512 | 12.50610 | 6182 ft | 267 kts | 202° |
| 2026-05-04 18:24 | 55.45705 | 12.49765 | 7024 ft | 275 kts | 188° |
| 2026-05-04 18:24 | 55.43791 | 12.50313 | 7825 ft | 288 kts | 159° |
| 2026-05-04 18:24 | 55.42210 | 12.52546 | 8622 ft | 301 kts | 127° |
| 2026-05-04 18:25 | 55.41388 | 12.55963 | 9438 ft | 308 kts | 106° |
| 2026-05-04 18:25 | 55.40805 | 12.59611 | 10227 ft | 311 kts | 107° |
| 2026-05-04 18:25 | 55.40175 | 12.63385 | 10558 ft | 333 kts | 108° |
| 2026-05-04 18:25 | 55.39483 | 12.67423 | 10824 ft | 354 kts | 108° |
| 2026-05-04 18:26 | 55.38757 | 12.71639 | 11346 ft | 364 kts | 108° |
| 2026-05-04 18:26 | 55.38022 | 12.75933 | 11997 ft | 370 kts | 108° |
| 2026-05-04 18:26 | 55.37271 | 12.80299 | 12696 ft | 375 kts | 108° |
| 2026-05-04 18:26 | 55.36511 | 12.84709 | 13386 ft | 379 kts | 109° |
| 2026-05-04 18:27 | 55.35740 | 12.89173 | 14004 ft | 384 kts | 109° |
| 2026-05-04 18:27 | 55.34950 | 12.93616 | 14586 ft | 387 kts | 112° |
| 2026-05-04 18:27 | 55.33765 | 12.97857 | 15197 ft | 387 kts | 126° |
| 2026-05-04 18:27 | 55.32105 | 13.01563 | 15819 ft | 385 kts | 138° |
| 2026-05-04 18:28 | 55.30088 | 13.04634 | 16419 ft | 383 kts | 149° |
| 2026-05-04 18:28 | 55.27801 | 13.06997 | 17040 ft | 381 kts | 158° |
| 2026-05-04 18:28 | 55.25420 | 13.09100 | 17637 ft | 384 kts | 159° |
| 2026-05-04 18:28 | 55.22905 | 13.10549 | 18182 ft | 379 kts | 177° |
| 2026-05-04 18:29 | 55.20285 | 13.10854 | 18690 ft | 378 kts | 182° |
| 2026-05-04 18:29 | 55.17644 | 13.11122 | 19215 ft | 381 kts | 181° |
| 2026-05-04 18:29 | 55.14986 | 13.11456 | 19734 ft | 384 kts | 181° |
| 2026-05-04 18:29 | 55.12309 | 13.11824 | 20245 ft | 387 kts | 180° |
| 2026-05-04 18:30 | 55.06891 | 13.12571 | 21255 ft | 392 kts | 181° |
| 2026-05-04 18:30 | 55.04162 | 13.12932 | 21756 ft | 395 kts | 181° |
| 2026-05-04 18:30 | 55.01421 | 13.13288 | 22245 ft | 397 kts | 181° |
| 2026-05-04 18:31 | 54.98652 | 13.13641 | 22724 ft | 399 kts | 182° |
| 2026-05-04 18:31 | 54.95877 | 13.13993 | 23195 ft | 402 kts | 182° |
| 2026-05-04 18:31 | 54.93072 | 13.14348 | 23636 ft | 404 kts | 182° |
| 2026-05-04 18:31 | 54.90263 | 13.14701 | 24025 ft | 407 kts | 183° |
| 2026-05-04 18:32 | 54.87434 | 13.15057 | 24423 ft | 408 kts | 183° |
| 2026-05-04 18:32 | 54.84586 | 13.15416 | 24816 ft | 410 kts | 183° |
| 2026-05-04 18:32 | 54.81733 | 13.15776 | 25207 ft | 412 kts | 184° |
| 2026-05-04 18:32 | 54.78868 | 13.16134 | 25582 ft | 414 kts | 184° |
| 2026-05-04 18:33 | 54.75999 | 13.16493 | 25956 ft | 415 kts | 184° |
| 2026-05-04 18:33 | 54.73111 | 13.16856 | 26334 ft | 417 kts | 184° |
| 2026-05-04 18:33 | 54.70207 | 13.17220 | 26712 ft | 418 kts | 184° |
| 2026-05-04 18:33 | 54.67297 | 13.17585 | 27073 ft | 420 kts | 184° |
| 2026-05-04 18:34 | 54.64375 | 13.17953 | 27433 ft | 422 kts | 184° |
| 2026-05-04 18:34 | 54.61434 | 13.18321 | 27791 ft | 424 kts | 184° |
| 2026-05-04 18:34 | 54.58519 | 13.18685 | 28136 ft | 426 kts | 184° |
| 2026-05-04 18:34 | 54.55558 | 13.19055 | 28475 ft | 428 kts | 184° |
| 2026-05-04 18:35 | 54.52544 | 13.19431 | 28812 ft | 429 kts | 184° |
| 2026-05-04 18:35 | 54.49557 | 13.19797 | 29131 ft | 431 kts | 184° |
| 2026-05-04 18:35 | 54.46598 | 13.20157 | 29458 ft | 433 kts | 184° |
| 2026-05-04 18:35 | 54.43586 | 13.20531 | 29740 ft | 435 kts | 184° |
| 2026-05-04 18:36 | 54.40521 | 13.20916 | 30040 ft | 437 kts | 184° |
| 2026-05-04 18:36 | 54.37531 | 13.21292 | 30292 ft | 439 kts | 184° |
| 2026-05-04 18:36 | 54.34481 | 13.21671 | 30528 ft | 440 kts | 184° |
| 2026-05-04 18:36 | 54.31420 | 13.22050 | 30780 ft | 442 kts | 184° |
| 2026-05-04 18:37 | 54.28351 | 13.22425 | 31065 ft | 442 kts | 184° |
| 2026-05-04 18:37 | 54.25285 | 13.22802 | 31400 ft | 441 kts | 184° |
| 2026-05-04 18:37 | 54.22226 | 13.23181 | 31739 ft | 441 kts | 183° |
| 2026-05-04 18:37 | 54.19170 | 13.23560 | 32068 ft | 440 kts | 183° |
| 2026-05-04 18:38 | 54.16118 | 13.23935 | 32390 ft | 440 kts | 183° |
| 2026-05-04 18:38 | 54.13068 | 13.24305 | 32710 ft | 439 kts | 183° |
| 2026-05-04 18:38 | 54.10021 | 13.24673 | 33028 ft | 439 kts | 183° |
| 2026-05-04 18:38 | 54.06975 | 13.25045 | 33319 ft | 439 kts | 183° |
| 2026-05-04 18:39 | 54.03928 | 13.25420 | 33620 ft | 439 kts | 183° |
| 2026-05-04 18:39 | 54.00880 | 13.25795 | 33931 ft | 439 kts | 183° |
| 2026-05-04 18:39 | 53.97830 | 13.26166 | 34182 ft | 439 kts | 182° |
| 2026-05-04 18:39 | 53.94779 | 13.26536 | 34422 ft | 440 kts | 182° |
| 2026-05-04 18:40 | 53.91725 | 13.26907 | 34657 ft | 440 kts | 182° |
| 2026-05-04 18:40 | 53.88663 | 13.27276 | 34902 ft | 440 kts | 182° |
| 2026-05-04 18:40 | 53.85605 | 13.27642 | 35132 ft | 441 kts | 182° |
| 2026-05-04 18:40 | 53.82546 | 13.28006 | 35359 ft | 441 kts | 182° |
| 2026-05-04 18:41 | 53.79493 | 13.28368 | 35585 ft | 441 kts | 182° |
| 2026-05-04 18:41 | 53.76426 | 13.28730 | 35809 ft | 441 kts | 182° |
| 2026-05-04 18:41 | 53.73373 | 13.29096 | 36030 ft | 441 kts | 181° |
| 2026-05-04 18:41 | 53.70307 | 13.29468 | 36259 ft | 441 kts | 181° |
| 2026-05-04 18:42 | 53.67249 | 13.29835 | 36471 ft | 440 kts | 181° |
| 2026-05-04 18:42 | 53.64185 | 13.30198 | 36680 ft | 440 kts | 181° |
| 2026-05-04 18:42 | 53.61136 | 13.30558 | 36881 ft | 440 kts | 181° |
| 2026-05-04 18:43 | 53.55023 | 13.31290 | 36977 ft | 440 kts | 181° |
| 2026-05-04 18:43 | 53.48919 | 13.32023 | 36968 ft | 439 kts | 181° |
| 2026-05-04 18:44 | 53.42829 | 13.32745 | 36969 ft | 439 kts | 181° |
| 2026-05-04 18:44 | 53.36783 | 13.33452 | 36966 ft | 438 kts | 181° |
| 2026-05-04 18:45 | 53.30694 | 13.34163 | 36964 ft | 438 kts | 181° |
| 2026-05-04 18:45 | 53.24612 | 13.34876 | 36965 ft | 438 kts | 181° |
| 2026-05-04 18:46 | 53.18533 | 13.35594 | 36961 ft | 438 kts | 181° |
| 2026-05-04 18:46 | 53.12456 | 13.36311 | 36964 ft | 438 kts | 181° |
| 2026-05-04 18:47 | 53.06383 | 13.37020 | 36957 ft | 437 kts | 181° |
| 2026-05-04 18:47 | 53.00312 | 13.37716 | 36955 ft | 437 kts | 181° |
| 2026-05-04 18:48 | 52.94243 | 13.38409 | 36965 ft | 437 kts | 181° |
| 2026-05-04 18:48 | 52.88179 | 13.39119 | 36960 ft | 437 kts | 181° |
| 2026-05-04 18:49 | 52.82115 | 13.39823 | 36959 ft | 437 kts | 181° |
| 2026-05-04 18:49 | 52.76086 | 13.40514 | 36960 ft | 437 kts | 181° |
| 2026-05-04 18:50 | 52.70029 | 13.41193 | 36956 ft | 437 kts | 181° |
| 2026-05-04 18:50 | 52.63960 | 13.41875 | 36956 ft | 437 kts | 181° |
| 2026-05-04 18:51 | 52.57898 | 13.42572 | 36953 ft | 436 kts | 181° |
| 2026-05-04 18:51 | 52.51840 | 13.43266 | 36945 ft | 436 kts | 181° |
| 2026-05-04 18:52 | 52.45781 | 13.43951 | 36948 ft | 436 kts | 181° |
| 2026-05-04 18:52 | 52.39730 | 13.44633 | 36946 ft | 436 kts | 181° |
| 2026-05-04 18:53 | 52.33685 | 13.45321 | 36952 ft | 435 kts | 181° |
| 2026-05-04 18:53 | 52.27639 | 13.45997 | 36951 ft | 435 kts | 181° |
| 2026-05-04 18:54 | 52.21605 | 13.46664 | 36951 ft | 434 kts | 181° |
| 2026-05-04 18:54 | 52.15578 | 13.47333 | 36956 ft | 434 kts | 181° |
| 2026-05-04 18:55 | 52.09558 | 13.48006 | 36955 ft | 433 kts | 181° |
| 2026-05-04 18:55 | 52.00537 | 13.49008 | 36954 ft | 433 kts | 181° |
| 2026-05-04 18:56 | 51.94525 | 13.49667 | 36959 ft | 433 kts | 181° |
| 2026-05-04 18:56 | 51.88515 | 13.50328 | 36952 ft | 433 kts | 181° |
| 2026-05-04 18:57 | 51.82507 | 13.50986 | 36955 ft | 433 kts | 180° |
| 2026-05-04 18:57 | 51.76500 | 13.51644 | 36949 ft | 433 kts | 180° |
| 2026-05-04 18:58 | 51.70494 | 13.52304 | 36949 ft | 433 kts | 180° |
| 2026-05-04 18:58 | 51.64527 | 13.52961 | 36952 ft | 433 kts | 180° |
| 2026-05-04 18:59 | 51.58516 | 13.53617 | 36954 ft | 432 kts | 180° |
| 2026-05-04 18:59 | 51.52513 | 13.54262 | 36954 ft | 432 kts | 180° |
| 2026-05-04 19:00 | 51.46509 | 13.54910 | 36956 ft | 432 kts | 180° |
| 2026-05-04 19:00 | 51.40511 | 13.55571 | 36965 ft | 432 kts | 180° |
| 2026-05-04 19:01 | 51.34506 | 13.56212 | 36968 ft | 433 kts | 180° |
| 2026-05-04 19:01 | 51.28494 | 13.56855 | 36967 ft | 432 kts | 180° |
| 2026-05-04 19:02 | 51.22487 | 13.57497 | 36965 ft | 433 kts | 180° |
| 2026-05-04 19:02 | 51.16471 | 13.58130 | 36966 ft | 433 kts | 180° |
| 2026-05-04 19:03 | 51.10459 | 13.58771 | 36968 ft | 433 kts | 180° |
| 2026-05-04 19:03 | 51.04446 | 13.59404 | 36961 ft | 433 kts | 180° |
| 2026-05-04 19:04 | 50.98431 | 13.60045 | 36965 ft | 433 kts | 180° |
| 2026-05-04 19:04 | 50.92414 | 13.60684 | 36967 ft | 433 kts | 180° |
| 2026-05-04 19:05 | 50.86391 | 13.61321 | 36970 ft | 433 kts | 180° |
| 2026-05-04 19:05 | 50.83387 | 13.61641 | 36509 ft | 432 kts | 180° |
| 2026-05-04 19:05 | 50.80385 | 13.61960 | 35824 ft | 433 kts | 180° |
| 2026-05-04 19:06 | 50.77413 | 13.62268 | 35146 ft | 433 kts | 180° |
| 2026-05-04 19:06 | 50.75384 | 13.62477 | 34677 ft | 434 kts | 180° |
| 2026-05-04 19:06 | 50.71420 | 13.62276 | 34090 ft | 427 kts | 191° |
| 2026-05-04 19:06 | 50.69449 | 13.61714 | 33967 ft | 427 kts | 197° |
| 2026-05-04 19:07 | 50.62863 | 13.58506 | 33979 ft | 426 kts | 200° |
| 2026-05-04 19:07 | 50.58126 | 13.56152 | 33972 ft | 426 kts | 200° |
| 2026-05-04 19:08 | 50.52506 | 13.53375 | 33972 ft | 426 kts | 200° |
| 2026-05-04 19:08 | 50.46852 | 13.50575 | 33970 ft | 426 kts | 200° |
| 2026-05-04 19:09 | 50.41205 | 13.47781 | 33968 ft | 425 kts | 200° |
| 2026-05-04 19:09 | 50.35560 | 13.44997 | 33966 ft | 425 kts | 200° |
| 2026-05-04 19:10 | 50.30869 | 13.42686 | 33962 ft | 425 kts | 200° |
| 2026-05-04 19:10 | 50.24283 | 13.39440 | 33961 ft | 425 kts | 200° |
| 2026-05-04 19:11 | 50.18638 | 13.36674 | 33966 ft | 425 kts | 200° |
| 2026-05-04 19:11 | 50.13002 | 13.33911 | 33964 ft | 424 kts | 200° |
| 2026-05-04 19:12 | 50.04539 | 13.29787 | 33961 ft | 424 kts | 200° |
| 2026-05-04 19:13 | 49.98902 | 13.27051 | 33959 ft | 424 kts | 200° |
| 2026-05-04 19:13 | 49.93267 | 13.24315 | 33950 ft | 424 kts | 200° |
| 2026-05-04 19:14 | 49.87632 | 13.21596 | 33816 ft | 423 kts | 199° |
| 2026-05-04 19:14 | 49.84825 | 13.20247 | 33140 ft | 421 kts | 199° |
| 2026-05-04 19:14 | 49.82029 | 13.18901 | 32517 ft | 419 kts | 199° |
| 2026-05-04 19:14 | 49.79262 | 13.17568 | 31907 ft | 416 kts | 199° |
| 2026-05-04 19:15 | 49.76504 | 13.16238 | 31314 ft | 414 kts | 199° |
| 2026-05-04 19:15 | 49.73759 | 13.14918 | 30749 ft | 412 kts | 199° |
| 2026-05-04 19:15 | 49.71027 | 13.13605 | 30193 ft | 410 kts | 199° |
| 2026-05-04 19:15 | 49.68307 | 13.12301 | 29577 ft | 408 kts | 199° |
| 2026-05-04 19:16 | 49.65597 | 13.11005 | 28993 ft | 405 kts | 199° |
| 2026-05-04 19:16 | 49.62914 | 13.09724 | 28428 ft | 402 kts | 199° |
| 2026-05-04 19:16 | 49.60258 | 13.08456 | 27791 ft | 400 kts | 199° |
| 2026-05-04 19:16 | 49.57587 | 13.07177 | 27041 ft | 402 kts | 199° |
| 2026-05-04 19:17 | 49.54918 | 13.05902 | 26457 ft | 400 kts | 199° |
| 2026-05-04 19:17 | 49.52264 | 13.04641 | 25902 ft | 398 kts | 199° |
| 2026-05-04 19:17 | 49.49630 | 13.03392 | 25369 ft | 395 kts | 199° |
| 2026-05-04 19:17 | 49.47015 | 13.02153 | 24841 ft | 392 kts | 199° |
| 2026-05-04 19:18 | 49.44419 | 13.00922 | 24325 ft | 389 kts | 200° |
| 2026-05-04 19:18 | 49.41978 | 12.99334 | 23625 ft | 388 kts | 210° |
| 2026-05-04 19:18 | 49.39591 | 12.97279 | 22549 ft | 397 kts | 211° |
| 2026-05-04 19:18 | 49.37197 | 12.95145 | 21841 ft | 397 kts | 212° |
| 2026-05-04 19:19 | 49.34825 | 12.92999 | 21255 ft | 394 kts | 212° |
| 2026-05-04 19:19 | 49.32473 | 12.90873 | 20697 ft | 391 kts | 212° |
| 2026-05-04 19:19 | 49.30139 | 12.88777 | 20167 ft | 387 kts | 212° |
| 2026-05-04 19:19 | 49.27821 | 12.86713 | 19650 ft | 384 kts | 211° |
| 2026-05-04 19:20 | 49.25520 | 12.84677 | 19130 ft | 380 kts | 211° |
| 2026-05-04 19:20 | 49.23236 | 12.82664 | 18642 ft | 377 kts | 211° |
| 2026-05-04 19:20 | 49.20971 | 12.80678 | 18133 ft | 374 kts | 211° |
| 2026-05-04 19:20 | 49.18723 | 12.78707 | 17586 ft | 371 kts | 211° |
| 2026-05-04 19:21 | 49.16492 | 12.76746 | 17059 ft | 368 kts | 211° |
| 2026-05-04 19:21 | 49.14279 | 12.74798 | 16525 ft | 366 kts | 211° |
| 2026-05-04 19:21 | 49.12084 | 12.72869 | 16032 ft | 363 kts | 210° |
| 2026-05-04 19:21 | 49.09905 | 12.70956 | 15533 ft | 360 kts | 210° |
| 2026-05-04 19:22 | 49.07754 | 12.69070 | 15164 ft | 353 kts | 210° |
| 2026-05-04 19:22 | 49.05634 | 12.67213 | 14739 ft | 349 kts | 210° |
| 2026-05-04 19:22 | 49.03540 | 12.65380 | 14291 ft | 347 kts | 210° |
| 2026-05-04 19:22 | 49.01457 | 12.63560 | 13845 ft | 344 kts | 210° |
| 2026-05-04 19:23 | 48.99386 | 12.61751 | 13358 ft | 341 kts | 210° |
| 2026-05-04 19:23 | 48.97332 | 12.59959 | 12827 ft | 339 kts | 210° |
| 2026-05-04 19:23 | 48.95290 | 12.58181 | 12277 ft | 338 kts | 210° |
| 2026-05-04 19:23 | 48.93252 | 12.56405 | 11752 ft | 336 kts | 210° |
| 2026-05-04 19:24 | 48.91225 | 12.54642 | 11215 ft | 335 kts | 210° |
| 2026-05-04 19:24 | 48.89206 | 12.52888 | 10945 ft | 335 kts | 210° |
| 2026-05-04 19:24 | 48.87176 | 12.51144 | 10919 ft | 336 kts | 208° |
| 2026-05-04 19:24 | 48.85065 | 12.49613 | 10921 ft | 336 kts | 205° |
| 2026-05-04 19:25 | 48.82934 | 12.48141 | 10821 ft | 334 kts | 205° |
| 2026-05-04 19:25 | 48.80831 | 12.46697 | 10419 ft | 329 kts | 205° |
| 2026-05-04 19:25 | 48.78786 | 12.45296 | 10296 ft | 316 kts | 205° |
| 2026-05-04 19:25 | 48.76816 | 12.43955 | 10173 ft | 305 kts | 204° |
| 2026-05-04 19:26 | 48.74914 | 12.42662 | 10051 ft | 294 kts | 205° |
| 2026-05-04 19:26 | 48.73078 | 12.41417 | 9931 ft | 284 kts | 205° |
| 2026-05-04 19:26 | 48.71296 | 12.40212 | 9762 ft | 277 kts | 205° |
| 2026-05-04 19:26 | 48.69548 | 12.39031 | 9469 ft | 274 kts | 205° |
| 2026-05-04 19:27 | 48.67809 | 12.37854 | 9200 ft | 274 kts | 205° |
| 2026-05-04 19:27 | 48.66072 | 12.36673 | 8940 ft | 273 kts | 204° |
| 2026-05-04 19:27 | 48.64339 | 12.35492 | 8681 ft | 274 kts | 205° |
| 2026-05-04 19:27 | 48.62565 | 12.34279 | 8427 ft | 282 kts | 205° |
| 2026-05-04 19:28 | 48.60772 | 12.33048 | 8174 ft | 283 kts | 205° |
| 2026-05-04 19:28 | 48.58978 | 12.31812 | 7925 ft | 283 kts | 205° |
| 2026-05-04 19:28 | 48.57183 | 12.30570 | 7673 ft | 283 kts | 205° |
| 2026-05-04 19:28 | 48.55396 | 12.29328 | 7422 ft | 283 kts | 205° |
| 2026-05-04 19:29 | 48.53609 | 12.28087 | 7179 ft | 282 kts | 204° |
| 2026-05-04 19:29 | 48.51825 | 12.26845 | 6943 ft | 283 kts | 205° |
| 2026-05-04 19:29 | 48.49989 | 12.25896 | 6709 ft | 277 kts | 188° |
| 2026-05-04 19:29 | 48.48113 | 12.25590 | 6599 ft | 265 kts | 185° |
| 2026-05-04 19:30 | 48.46323 | 12.25371 | 6600 ft | 251 kts | 185° |
| 2026-05-04 19:30 | 48.44626 | 12.25170 | 6552 ft | 240 kts | 185° |
| 2026-05-04 19:30 | 48.42970 | 12.24975 | 6362 ft | 238 kts | 185° |
| 2026-05-04 19:30 | 48.41324 | 12.24775 | 6052 ft | 237 kts | 185° |
| 2026-05-04 19:31 | 48.39751 | 12.24210 | 5752 ft | 237 kts | 206° |
| 2026-05-04 19:31 | 48.38424 | 12.22727 | 5451 ft | 237 kts | 228° |
| 2026-05-04 19:31 | 48.37579 | 12.20600 | 5174 ft | 239 kts | 250° |
| 2026-05-04 19:31 | 48.37288 | 12.18147 | 5008 ft | 240 kts | 263° |
| 2026-05-04 19:32 | 48.37110 | 12.15684 | 4996 ft | 241 kts | 263° |
| 2026-05-04 19:32 | 48.36927 | 12.13186 | 4996 ft | 237 kts | 263° |
| 2026-05-04 19:32 | 48.36750 | 12.10772 | 4995 ft | 223 kts | 264° |
| 2026-05-04 19:32 | 48.36586 | 12.08534 | 4995 ft | 212 kts | 263° |
| 2026-05-04 19:33 | 48.36426 | 12.06377 | 4820 ft | 203 kts | 263° |
| 2026-05-04 19:33 | 48.36271 | 12.04294 | 4568 ft | 198 kts | 263° |
| 2026-05-04 19:33 | 48.36118 | 12.02234 | 4310 ft | 199 kts | 263° |
| 2026-05-04 19:33 | 48.35965 | 12.00172 | 4051 ft | 198 kts | 262° |
| 2026-05-04 19:34 | 48.35812 | 11.98127 | 3795 ft | 196 kts | 264° |
| 2026-05-04 19:34 | 48.35660 | 11.96083 | 3532 ft | 195 kts | 264° |
| 2026-05-04 19:34 | 48.35515 | 11.94098 | 3328 ft | 186 kts | 264° |
| 2026-05-04 19:34 | 48.35372 | 11.92214 | 3115 ft | 174 kts | 263° |
| 2026-05-04 19:35 | 48.35239 | 11.90451 | 2825 ft | 166 kts | 264° |
| 2026-05-04 19:35 | 48.35111 | 11.88773 | 2614 ft | 158 kts | 264° |
| 2026-05-04 19:35 | 48.34990 | 11.87169 | 2410 ft | 156 kts | 264° |
| 2026-05-04 19:35 | 48.34869 | 11.85579 | 2183 ft | 150 kts | 264° |
| 2026-05-04 19:36 | 48.34753 | 11.84045 | 1993 ft | 145 kts | 265° |
| 2026-05-04 19:36 | 48.34641 | 11.82554 | 1787 ft | 142 kts | 265° |
| 2026-05-04 19:36 | 48.34530 | 11.81083 | 1609 ft | 142 kts | 265° |
| 2026-05-04 19:36 | 48.34416 | 11.79626 | 1488 ft | 133 kts | 264° |
| 2026-05-04 19:37 | 48.34330 | 11.78487 | 1485 ft | 84 kts | 263° |
| 2026-05-04 19:37 | 48.34278 | 11.77807 | 1471 ft | 51 kts | 263° |
| 2026-05-04 19:37 | 48.34251 | 11.77421 | 1485 ft | 24 kts | 270° |
| 2026-05-04 19:37 | 48.34282 | 11.77179 | 1479 ft | 24 kts | 292° |
| 2026-05-04 19:38 | 48.34327 | 11.77019 | 1476 ft | 15 kts | 293° |
| 2026-05-04 19:38 | 48.34356 | 11.76921 | 1477 ft | 6 kts | 293° |
| 2026-05-04 19:38 | 48.34372 | 11.76862 | 1481 ft | 7 kts | 293° |
| 2026-05-04 19:38 | 48.34396 | 11.76781 | 1476 ft | 11 kts | 295° |
| 2026-05-04 19:39 | 48.34470 | 11.76702 | 1482 ft | 15 kts | 353° |
| 2026-05-04 19:39 | 48.34562 | 11.76708 | 1481 ft | 13 kts | 40° |
| 2026-05-04 19:39 | 48.34582 | 11.76840 | 1473 ft | 12 kts | 83° |
| 2026-05-04 19:39 | 48.34593 | 11.76991 | 1485 ft | 17 kts | 83° |
| 2026-05-04 19:40 | 48.34609 | 11.77201 | 1473 ft | 22 kts | 83° |
| 2026-05-04 19:40 | 48.34628 | 11.77440 | 1477 ft | 24 kts | 83° |
| 2026-05-04 19:40 | 48.34647 | 11.77693 | 1477 ft | 25 kts | 83° |
| 2026-05-04 19:40 | 48.34668 | 11.77962 | 1480 ft | 27 kts | 83° |
| 2026-05-04 19:41 | 48.34690 | 11.78245 | 1485 ft | 28 kts | 83° |
| 2026-05-04 19:41 | 48.34713 | 11.78542 | 1480 ft | 29 kts | 83° |
| 2026-05-04 19:41 | 48.34737 | 11.78851 | 1485 ft | 30 kts | 83° |
| 2026-05-04 19:41 | 48.34760 | 11.79157 | 1485 ft | 27 kts | 83° |
| 2026-05-04 19:42 | 48.34782 | 11.79435 | 1485 ft | 22 kts | 83° |
| 2026-05-04 19:42 | 48.34826 | 11.79562 | 1481 ft | 13 kts | 14° |
| 2026-05-04 19:42 | 48.34912 | 11.79548 | 1485 ft | 11 kts | 353° |
| 2026-05-04 19:42 | 48.34970 | 11.79537 | 1485 ft | 7 kts | 353° |
| 2026-05-04 19:43 | 48.35018 | 11.79527 | 1485 ft | 6 kts | 343° |
| 2026-05-04 19:43 | 48.35025 | 11.79484 | 1485 ft | 4 kts | 257° |
| 2026-05-04 19:43 | 48.35021 | 11.79445 | 1482 ft | 3 kts | 263° |
| 2026-05-04 19:43 | 48.35019 | 11.79415 | 1485 ft | 3 kts | 263° |
| 2026-05-04 19:44 | 48.35017 | 11.79393 | 1485 ft | 2 kts | 263° |
| 2026-05-04 19:44 | 48.35016 | 11.79382 | 1485 ft | 0 kts | 263° |